Date,TemperatureHighF,TemperatureAvgF,TemperatureLowF,DewpointHighF,DewpointAvgF,DewpointLowF,HumidityHigh,HumidityAvg,HumidityLow,PressureMaxIn,PressureMinIn,WindSpeedMaxMPH,WindSpeedAvgMPH,GustSpeedMaxMPH,PrecipitationSumIn
2013-1-1,69,61,50,67,57,45,95,87,75,30.13,29.81,21,7,0,0.05
2013-1-2,50,44,41,45,40,38,92,85,73,30.27,30.10,15,7,0,0.25
2013-1-3,50,46,43,38,37,34,83,70,55,30.34,30.23,14,7,0,0.00
2013-1-4,50,48,45,43,40,37,93,73,67,30.38,30.28,17,9,0,0.01
2013-1-5,50,48,45,46,43,39,92,84,69,30.31,30.20,14,7,0,0.01
2013-1-6,61,51,44,47,45,42,93,81,57,30.31,30.21,11,4,0,0.00
2013-1-7,60,52,43,56,48,-100,96,88,78,30.26,29.94,13,-5,0,0.01
2013-1-8,68,63,57,67,62,56,98,96,93,29.94,29.71,19,5,0,0.06
2013-1-9,68,63,56,68,61,55,97,94,87,29.99,29.76,11,4,0,0.70
2013-1-10,67,58,52,56,52,49,97,83,58,30.06,29.97,11,3,0,0.70
2013-1-11,76,64,51,70,62,50,98,94,80,30.00,29.77,11,2,0,0.01
2013-1-12,76,71,68,72,70,68,98,95,84,29.80,29.60,18,6,0,0.01
2013-1-13,71,56,47,70,46,38,96,73,50,30.05,29.67,21,9,0,0.01
2013-1-14,51,46,43,44,41,37,95,82,68,30.14,30.01,13,7,0,0.00
2013-1-15,46,44,42,45,41,37,96,91,81,30.18,29.99,16,8,0,0.06
2013-1-16,57,45,37,37,29,20,81,55,23,30.33,30.17,18,7,0,0.01
2013-1-17,65,48,34,44,36,27,94,65,36,30.41,30.27,14,3,0,0.01
2013-1-18,66,52,41,50,46,39,95,80,52,30.45,30.27,9,2,0,0.00
2013-1-19,72,59,47,57,51,45,97,78,47,30.27,30.11,8,2,0,0.01
2013-1-20,72,60,48,60,54,47,98,82,58,30.20,30.05,10,2,0,0.00
2013-1-21,71,61,53,61,54,50,97,82,50,30.18,30.06,6,2,0,0.01
2013-1-22,72,61,51,60,55,49,97,83,57,30.24,30.12,10,2,0,0.01
2013-1-23,77,65,57,67,61,56,98,87,66,30.28,30.17,12,2,0,0.01
2013-1-24,79,67,59,67,62,58,98,87,63,30.24,30.09,13,3,0,0.01
2013-1-25,78,68,59,67,64,59,98,87,67,30.12,29.99,14,4,0,0.01
2013-1-26,77,68,63,66,63,62,97,85,63,30.09,29.99,13,4,0,0.01
2013-1-27,77,69,64,71,67,61,97,92,80,30.04,29.91,18,5,0,0.01
2013-1-28,78,71,68,71,68,67,97,92,80,30.02,29.85,16,8,0,0.00
2013-1-29,82,73,68,71,68,45,97,86,40,29.86,29.54,18,8,0,0.00
2013-1-30,70,62,55,44,26,12,42,27,12,30.19,29.70,22,11,0,0.00
2013-1-31,70,54,38,49,35,23,85,52,21,30.28,30.17,10,2,0,0.00
2013-2-1,72,61,51,57,51,47,94,73,42,30.29,30.16,11,2,0,0.00
2013-2-2,76,64,57,61,58,54,94,82,59,30.19,30.10,10,2,0,0.00
2013-2-3,72,63,54,62,59,53,98,87,65,30.24,29.98,8,3,0,0.01
2013-2-4,78,68,61,67,63,58,93,85,67,29.97,29.75,10,3,0,0.01
2013-2-5,84,69,60,70,65,58,98,89,62,29.91,29.80,8,2,0,0.01
2013-2-6,72,67,63,71,66,61,98,95,89,29.95,29.76,16,6,0,0.60
2013-2-7,75,68,62,69,65,61,96,92,79,29.94,29.82,6,2,0,0.60
2013-2-8,70,63,58,63,56,52,98,80,53,30.13,29.94,16,6,0,0.01
2013-2-9,74,68,61,69,66,59,95,91,84,30.02,29.74,17,5,0,0.01
2013-2-10,81,71,66,72,65,55,96,81,61,29.87,29.69,18,8,0,0.01
2013-2-11,66,62,59,61,59,55,97,87,72,29.92,29.82,16,11,0,0.00
2013-2-12,69,62,58,62,59,56,98,91,71,29.94,29.76,12,5,0,0.01
2013-2-13,62,56,48,59,47,41,93,72,51,30.12,29.93,15,6,0,0.01
2013-2-14,68,56,44,51,46,38,95,71,35,30.10,29.99,7,2,0,0.00
2013-2-15,69,60,50,57,51,44,95,74,49,30.25,30.00,16,4,0,0.00
2013-2-16,65,54,46,45,36,29,82,54,29,30.43,30.23,15,5,0,0.00
2013-2-17,70,58,41,59,49,39,94,75,50,30.23,29.96,14,4,0,0.00
2013-2-18,78,69,62,67,63,59,93,82,68,29.95,29.79,15,5,0,0.00
2013-2-19,67,63,61,63,54,47,96,73,59,30.15,29.94,20,8,0,0.00
2013-2-20,73,69,64,68,65,57,94,88,78,29.97,29.63,13,5,0,0.00
2013-2-21,81,73,67,70,64,53,95,76,52,29.76,29.54,17,8,0,0.00
2013-2-22,70,66,61,59,52,47,81,63,46,29.88,29.75,19,10,0,0.00
2013-2-23,72,60,53,55,49,44,92,69,47,29.98,29.82,13,6,0,0.00
2013-2-24,68,62,51,67,60,50,97,94,84,29.86,29.56,8,2,0,0.01
2013-2-25,72,66,56,68,42,18,98,51,13,29.84,29.48,34,13,0,0.01
2013-2-26,72,55,38,48,35,23,89,51,16,29.97,29.81,10,3,0,0.00
2013-2-27,76,61,48,60,44,30,97,62,19,30.13,29.83,16,5,0,0.01
2013-2-28,61,55,46,40,32,26,69,43,29,30.25,30.13,19,9,0,0.01
2013-3-1,69,56,45,48,35,26,79,49,23,30.24,30.08,16,2,0,0.00
2013-3-2,66,56,47,47,36,27,88,51,24,30.36,30.19,20,7,0,0.00
2013-3-3,46,43,40,41,36,32,87,78,71,30.24,30.20,2,0,0,0.00
2013-3-5,70,63,58,45,33,-100,63,35,23,30.26,30.08,22,-7,0,0.00
2013-3-6,62,55,48,49,39,31,85,57,38,30.38,30.18,14,7,0,0.00
2013-3-7,72,63,51,62,58,48,96,82,67,30.18,30.05,16,4,0,0.00
2013-3-8,76,69,65,68,65,62,93,85,73,30.07,29.96,15,5,0,0.00
2013-3-9,77,70,67,68,66,64,93,87,73,29.96,29.61,20,7,0,0.00
2013-3-10,76,69,60,68,55,39,95,66,33,30.01,29.54,21,10,0,0.06
2013-3-11,72,62,53,45,35,24,71,41,18,30.12,29.95,17,7,0,0.06
2013-3-12,74,61,46,53,48,42,90,66,40,30.18,30.02,10,2,0,0.00
2013-3-13,70,61,51,59,54,50,97,79,58,30.35,30.17,14,3,0,0.00
2013-3-14,75,64,51,63,56,50,98,77,56,30.33,30.20,16,2,0,0.00
2013-3-15,78,66,52,63,59,51,97,79,57,30.23,30.00,15,4,0,0.00
2013-3-16,79,69,63,66,64,60,95,82,64,30.01,29.75,19,6,0,0.01
2013-3-17,81,72,65,70,67,64,95,85,67,29.79,29.60,15,5,0,0.01
2013-3-18,82,72,68,70,68,65,95,85,67,29.81,29.66,12,3,0,0.00
2013-3-19,78,71,66,69,67,61,96,88,72,29.92,29.76,11,4,0,0.00
2013-3-20,74,68,63,68,60,50,95,76,56,30.08,29.83,24,9,0,0.02
2013-3-21,75,69,62,67,62,58,92,81,64,30.00,29.62,13,4,0,0.02
2013-3-22,81,73,69,73,69,67,95,89,73,29.68,29.57,12,3,0,0.00
2013-3-23,80,73,66,72,69,65,97,88,69,29.64,29.52,11,2,0,0.00
2013-3-24,67,64,57,66,44,24,98,56,20,30.07,29.61,22,9,0,0.01
2013-3-25,61,55,49,39,33,25,67,45,27,30.29,30.07,21,8,0,0.00
2013-3-26,64,58,49,41,36,31,66,46,31,30.40,30.28,14,6,0,0.00
2013-3-27,68,60,49,58,49,39,82,69,56,30.30,30.14,11,2,0,0.00
2013-3-28,74,68,64,63,61,58,90,79,65,30.15,30.07,14,4,0,0.00
2013-3-29,78,69,62,66,63,60,94,82,62,30.12,30.01,13,3,0,0.00
2013-3-30,82,72,65,70,66,63,94,85,66,30.05,29.88,12,4,0,0.00
2013-3-31,82,73,68,71,68,66,95,86,68,29.92,29.73,15,4,0,0.00
2013-4-1,76,71,66,70,68,65,97,90,77,29.97,29.85,14,4,0,0.00
2013-4-2,78,73,69,72,70,68,96,90,80,29.93,29.72,12,4,0,0.00
2013-4-3,75,67,57,70,61,52,96,83,66,30.05,29.74,22,9,0,0.01
2013-4-4,75,62,54,53,50,46,86,66,36,30.13,29.99,14,8,0,0.01
2013-4-5,68,60,49,57,51,45,87,74,58,30.23,30.03,13,4,0,0.00
2013-4-6,78,68,59,63,60,56,91,78,58,30.05,29.84,18,4,0,0.00
2013-4-7,79,72,64,67,65,62,94,80,63,29.88,29.75,21,6,0,0.00
2013-4-8,80,73,69,71,69,66,94,87,73,29.77,29.61,16,6,0,0.00
2013-4-9,83,75,70,73,71,68,94,86,70,29.67,29.52,19,7,0,0.00
2013-4-10,82,69,58,74,65,51,94,85,68,29.78,29.56,22,9,0,0.00
2013-4-11,71,59,49,52,47,42,91,67,43,29.91,29.74,16,7,0,0.17
2013-4-12,74,63,52,62,57,50,97,81,65,29.92,29.81,11,3,0,0.17
2013-4-13,76,70,63,65,63,61,95,78,64,29.89,29.68,15,4,0,0.00
2013-4-14,87,74,65,73,69,64,96,83,60,29.73,29.60,13,4,0,0.00
2013-4-15,84,76,70,72,70,68,95,84,65,29.76,29.64,15,6,0,0.00
2013-4-16,79,74,72,73,72,70,95,90,82,29.82,29.70,15,5,0,0.00
2013-4-17,82,76,73,75,73,72,97,92,79,29.81,29.60,16,4,0,0.01
2013-4-18,82,69,60,75,63,-100,96,82,60,30.00,29.56,28,-1,0,0.01
2013-4-19,72,59,52,49,41,31,77,52,27,30.26,30.00,21,8,0,0.00
2013-4-20,72,61,46,57,49,42,89,66,39,30.17,29.98,14,3,0,0.00
2013-4-21,78,69,59,64,60,55,90,73,55,30.05,29.95,10,3,0,0.00
2013-4-22,81,72,66,68,66,64,93,82,65,30.03,29.86,11,4,0,0.00
2013-4-23,82,74,68,72,70,67,95,87,68,29.89,29.77,15,5,0,0.00
2013-4-24,73,58,51,71,53,48,95,84,69,30.14,29.89,22,9,0,0.03
2013-4-25,67,63,60,67,57,51,97,82,64,30.21,30.09,16,6,0,0.13
2013-4-26,79,73,68,73,70,67,97,92,80,30.11,29.97,16,4,0,0.14
2013-4-27,81,75,72,73,71,70,96,89,74,30.02,29.86,15,4,0,0.00
2013-4-28,76,71,66,71,68,65,96,91,83,29.97,29.78,13,4,0,0.24
2013-4-29,80,73,67,73,69,66,98,89,70,29.89,29.72,9,2,0,0.02
2013-4-30,82,73,64,73,69,62,96,87,70,29.77,29.66,10,3,0,0.01
2013-5-1,84,76,70,74,72,69,97,86,69,29.85,29.70,10,3,0,0.01
2013-5-2,78,69,55,72,62,44,95,79,63,30.21,29.80,22,9,0,0.02
2013-5-3,70,60,52,49,36,31,78,44,25,30.26,30.04,26,11,0,0.00
2013-5-4,80,64,49,56,47,38,83,57,25,30.06,29.86,10,3,0,0.00
2013-5-5,80,67,56,62,57,53,94,72,40,30.03,29.90,15,2,0,0.00
2013-5-6,78,68,58,66,59,56,97,75,51,30.06,29.92,11,2,0,0.00
2013-5-7,80,71,61,67,63,59,95,77,60,30.02,29.90,12,3,0,0.00
2013-5-8,82,74,69,71,69,66,94,83,66,29.97,29.86,14,4,0,0.00
2013-5-9,80,76,73,74,73,71,95,90,80,29.89,29.75,14,4,0,0.00
2013-5-10,79,75,72,76,73,69,97,93,87,29.89,29.76,14,4,0,0.02
2013-5-11,84,76,70,71,69,66,96,80,59,30.03,29.87,15,5,0,0.02
2013-5-12,76,72,64,70,64,59,94,78,63,30.12,29.98,17,5,0,0.11
2013-5-13,80,73,63,68,65,62,95,78,57,30.21,30.09,13,3,0,0.11
2013-5-14,84,76,70,72,70,66,90,82,66,30.16,30.00,13,4,0,0.00
2013-5-15,80,76,73,74,72,71,97,90,81,30.06,29.83,16,6,0,0.19
2013-5-16,85,78,72,76,73,70,93,86,75,29.85,29.68,17,6,0,0.19
2013-5-17,88,79,74,77,74,71,94,84,57,29.85,29.73,13,6,0,0.00
2013-5-18,87,80,76,76,74,73,94,84,63,29.86,29.77,23,6,0,0.00
2013-5-19,86,80,76,76,75,74,94,85,70,29.83,29.69,17,7,0,0.00
2013-5-20,86,80,76,77,75,74,94,86,74,29.78,29.66,15,6,0,0.00
2013-5-21,87,80,76,77,76,74,95,87,73,29.75,29.64,11,5,0,0.00
2013-5-22,86,80,77,77,76,75,96,86,72,29.83,29.72,11,3,0,0.00
2013-5-23,87,81,76,78,76,75,95,87,74,29.93,29.80,12,4,0,0.00
2013-5-24,88,81,75,77,76,71,93,84,68,30.02,29.90,12,5,0,0.00
2013-5-25,83,79,77,77,76,72,94,89,78,30.03,29.95,12,5,0,0.40
2013-5-26,86,80,76,75,74,73,92,81,66,30.02,29.91,12,4,0,0.40
2013-5-27,87,81,76,76,75,74,93,82,66,29.96,29.81,15,6,0,0.00
2013-5-28,87,81,78,77,75,74,90,83,70,29.86,29.73,16,8,0,0.00
2013-5-29,84,80,78,77,76,75,90,86,78,29.79,29.67,16,6,0,0.00
2013-5-30,89,82,78,78,77,75,92,83,69,29.78,29.70,15,5,0,0.00
2013-5-31,91,83,78,78,77,76,93,82,65,29.82,29.72,13,5,0,0.00
2013-6-1,92,84,79,79,77,76,90,81,66,29.84,29.73,16,6,0,0.00
2013-6-2,90,81,72,80,76,71,95,84,66,29.97,29.81,11,2,0,0.42
2013-6-3,88,81,73,76,74,71,96,79,66,29.90,29.77,7,2,0,0.42
2013-6-4,89,80,71,75,72,69,97,80,60,29.83,29.75,10,2,0,0.00
2013-6-5,91,39,73,77,-12,-100,96,44,56,29.81,29.73,3,-494,0,0.03
2013-6-6,-200,0,200,-100,-100,-100,0,0,100,29.79,29.69,0,-999,0,0.03
2013-6-7,-200,0,200,-100,-100,-100,0,0,100,29.87,29.76,0,-999,0,0.00
2013-6-8,-200,0,200,-100,-100,-100,0,0,100,29.86,29.75,0,-999,0,0.00
2013-6-9,-200,0,200,-100,-100,-100,0,0,100,29.87,29.75,0,-999,0,0.00
2013-6-10,-200,0,200,-100,-100,-100,0,0,100,29.90,29.85,0,-999,0,0.00
2013-6-11,-200,0,200,-100,-100,-100,0,0,100,29.96,29.89,0,-999,0,0.00
2013-6-12,-200,0,200,-100,-100,-100,0,0,100,29.97,29.90,0,-999,0,0.00
2013-6-13,-200,0,200,-100,-100,-100,0,0,100,29.98,29.86,0,-999,0,0.00
2013-6-14,-200,0,200,-100,-100,-100,0,0,100,29.91,29.82,0,-999,0,0.00
2013-6-15,-200,0,200,-100,-100,-100,0,0,100,29.91,29.83,0,-999,0,0.00
2013-6-16,-200,0,200,-100,-100,-100,0,0,100,29.94,29.86,0,-999,0,0.00
2013-6-17,-200,0,200,-100,-100,-100,0,0,100,29.91,29.81,0,-999,0,0.00
2013-6-18,-200,0,200,-100,-100,-100,0,0,100,29.91,29.82,0,-999,0,0.00
2013-6-19,-200,0,200,-100,-100,-100,0,0,100,29.95,29.85,0,-999,0,0.00
2013-6-20,-200,0,200,-100,-100,-100,0,0,100,29.98,29.89,0,-999,0,0.00
2013-6-21,-200,0,200,-100,-100,-100,0,0,100,30.01,29.94,0,-999,0,0.00
2013-6-22,-200,0,200,-100,-100,-100,0,0,100,29.98,29.86,0,-999,0,0.00
2013-6-23,-200,0,200,-100,-100,-100,0,0,100,29.93,29.85,0,-999,0,0.00
2013-6-24,-200,0,200,-100,-100,-100,0,0,100,29.96,29.87,0,-999,0,0.00
2013-6-25,-200,0,200,-100,-100,-100,0,0,100,29.95,29.85,0,-999,0,0.00
2013-6-26,-200,0,200,-100,-100,-100,0,0,100,29.91,29.84,0,-999,0,0.00
2013-6-27,-200,0,200,-100,-100,-100,0,0,100,29.95,29.86,0,-999,0,0.00
2013-6-28,-200,0,200,-100,-100,-100,0,0,100,29.93,29.82,0,-999,0,0.00